Friday, December 14, 2018, 12:21 PM EST
Back to Local

KFRG, Farmingdale Republic Airport

Location: Farmingdale, NY, United States Lat: 40.733
Local Time: 12:21 PM EST (17:21 GMT) Lon: -73.417
Time Zone: US/Eastern Elev: 82 ft

Show me the last for .
Show Decoded

2018-12-14 12:08 METAR KFRG 141708Z 13011KT 10SM BKN022 09/06 A3040 RMK AO2 T00940061 =
2018-12-14 11:53 METAR KFRG 141653Z 12010KT 10SM SCT026 10/06 A3041 RMK AO2 SLP299 T01000061 =
2018-12-14 11:49 METAR KFRG 141649Z 13008KT 10SM SCT026 10/06 A3042 RMK AO2 =
2018-12-14 10:53 METAR KFRG 141553Z 14008KT 10SM OVC023 08/05 A3047 RMK AO2 SLP318 T00830050 =
2018-12-14 10:22 METAR KFRG 141522Z 14009KT 10SM BKN028 OVC060 08/04 A3048 RMK AO2 T00830044 =
2018-12-14 09:53 METAR KFRG 141453Z 12006KT 10SM BKN033 OVC060 07/04 A3050 RMK AO2 SLP329
                 T00720039 50009 =
2018-12-14 09:00 METAR KFRG 141400Z 09004KT 10SM SCT026 BKN035 BKN060 06/03 A3050 RMK AO2
                 T00610033 =
2018-12-14 08:53 METAR KFRG 141353Z 00000KT 10SM BKN026 BKN035 06/03 A3051 RMK AO2 SLP330
                 T00560033 =
2018-12-14 07:53 METAR KFRG 141253Z 08005KT 10SM OVC024 04/02 A3049 RMK AO2 SLP326 T00390022 =
2018-12-14 07:16 METAR KFRG 141216Z 07005KT 10SM BKN024 03/02 A3048 RMK AO2 T00330017 =
2018-12-14 06:53 METAR KFRG 141153Z 07004KT 10SM CLR 03/02 A3048 RMK AO2 SLP320 70005 T00330017
                 10061 20028 55002 =
2018-12-14 05:53 METAR KFRG 141053Z AUTO 07006KT 10SM FEW021 OVC033 04/02 A3046 RMK AO2 SLP316
                 T00390022 =
2018-12-14 04:53 METAR KFRG 140953Z AUTO 06005KT 10SM FEW020 OVC034 04/02 A3046 RMK AO2 SLP316
                 T00440022 =
2018-12-14 03:53 METAR KFRG 140853Z AUTO 10005KT 10SM OVC024 05/03 A3048 RMK AO2 SLP322 T00500028
                 53002 =
2018-12-14 03:36 METAR KFRG 140836Z AUTO 09006KT 10SM BKN024 OVC035 05/03 A3048 RMK AO2 T00500028
                 =
2018-12-14 03:22 METAR KFRG 140822Z AUTO 08006KT 10SM SCT022 OVC035 05/03 A3047 RMK AO2 T00500028
                 =
2018-12-14 02:53 METAR KFRG 140753Z AUTO 09007KT 10SM OVC019 06/03 A3048 RMK AO2 SLP320 T00560033
                 =
2018-12-14 01:53 METAR KFRG 140653Z AUTO 10007KT 10SM BKN019 OVC029 06/03 A3048 RMK AO2 SLP322
                 T00610033 =
2018-12-14 01:41 METAR KFRG 140641Z AUTO 11007KT 10SM SCT019 BKN027 BKN032 06/03 A3048 RMK AO2
                 T00560033 =
2018-12-14 00:53 METAR KFRG 140553Z AUTO 08006KT 10SM FEW030 SCT042 05/03 A3048 RMK AO2 SLP320
                 T00500028 10061 20044 58000 =
2018-12-14 00:09 METAR KFRG 140509Z AUTO 09006KT 10SM FEW029 OVC041 06/03 A3049 RMK AO2 T00560033
                 =
2018-12-13 23:53 METAR KFRG 140453Z AUTO 10005KT 10SM BKN029 OVC042 06/03 A3049 RMK AO2 SLP325
                 T00560033 400561011 =
2018-12-13 23:34 METAR KFRG 140434Z AUTO 11007KT 10SM BKN028 OVC040 06/03 A3049 RMK AO2 T00560033
                 =
2018-12-13 22:53 METAR KFRG 140353Z 10008KT 10SM FEW028 OVC040 06/03 A3049 RMK AO2 SLP324
                 T00560033 =
2018-12-13 22:35 METAR KFRG 140335Z 11008KT 10SM FEW019 SCT025 OVC034 06/03 A3048 RMK AO2
                 T00560033 =
2018-12-13 21:53 METAR KFRG 140253Z 10008KT 10SM OVC017 06/03 A3048 RMK AO2 SLP321 T00560033
                 50005 =
2018-12-13 20:53 METAR KFRG 140153Z 07005KT 10SM OVC015 05/03 A3048 RMK AO2 SLP322 T00500033 =
2018-12-13 19:53 METAR KFRG 140053Z 09006KT 10SM OVC015 05/03 A3047 RMK AO2 SLP319 T00500028 =
2018-12-13 18:53 METAR KFRG 132353Z 09007KT 10SM OVC015 04/02 A3046 RMK AO2 RAE2254 SLP315 P0000
                 60005 T00440022 10050 20028 51004 =
2018-12-13 17:53 METAR KFRG 132253Z 10003KT 9SM -RA BKN017 OVC025 04/03 A3046 RMK AO2 SLP314
                 P0002 T00390028 =
2018-12-13 16:53 METAR KFRG 132153Z 09005KT 5SM -RA BR BKN018 OVC025 04/03 A3046 RMK AO2 SLP314
                 P0003 T00390028 =
2018-12-13 15:53 METAR KFRG 132053Z 00000KT 5SM -RA BR OVC019 04/02 A3045 RMK AO2 RAB38 SLP311
                 P0000 60000 T00440022 53015 =
2018-12-13 14:53 METAR KFRG 131953Z 09006KT 10SM OVC019 04/02 A3042 RMK AO2 SLP302 T00440017 =
2018-12-13 13:53 METAR KFRG 131853Z 05004KT 10SM OVC021 03/01 A3041 RMK AO2 UPB1756E22 SLP297
                 P0000 T00330011 =
2018-12-13 12:53 METAR KFRG 131753Z 08003KT 9SM BKN023 OVC031 03/00 A3040 RMK AO2 SLP296 60000
                 T00280000 10028 21006 58008 =

Support USWX by starting your Amazon purchase here.